createdAt,value
2019-02-03T00:01:44.474Z,50.27
2019-02-03T00:04:17.147Z,53.17
2019-02-03T00:06:49.822Z,53.67
2019-02-03T00:09:22.530Z,55.43
2019-02-03T00:11:55.502Z,56.20
2019-02-03T00:14:28.217Z,58.20
2019-02-03T00:17:01.342Z,57.20
2019-02-03T00:19:34.030Z,56.17
2019-02-03T00:22:06.752Z,61.57
2019-02-03T00:24:39.668Z,58.77
2019-02-03T00:27:12.326Z,60.23
2019-02-03T00:29:45.251Z,60.70
2019-02-03T00:32:17.935Z,60.07
2019-02-03T00:34:50.964Z,61.00
2019-02-03T00:37:23.634Z,61.03
2019-02-03T00:39:56.387Z,60.77
2019-02-03T00:42:29.354Z,59.83
2019-02-03T00:45:02.023Z,61.03
2019-02-03T00:47:40.603Z,61.73
2019-02-03T00:50:13.667Z,59.33
2019-02-03T00:52:46.761Z,56.80
2019-02-03T00:55:19.546Z,55.97
2019-02-03T00:57:52.334Z,56.00
2019-02-03T01:00:25.023Z,56.03
2019-02-03T01:02:57.824Z,57.23
2019-02-03T01:05:30.530Z,53.57
2019-02-03T01:08:04.101Z,53.80
2019-02-03T01:10:36.816Z,52.13
2019-02-03T01:13:09.807Z,48.10
2019-02-03T01:15:42.808Z,50.40
2019-02-03T01:18:15.513Z,48.37
2019-02-03T01:20:49.184Z,45.40
2019-02-03T01:23:21.954Z,48.33
2019-02-03T01:25:54.639Z,48.70
2019-02-03T01:28:27.331Z,47.73
2019-02-03T01:31:00.019Z,46.70
2019-02-03T01:33:32.710Z,48.03
2019-02-03T01:36:05.418Z,47.40
2019-02-03T01:38:38.127Z,48.47
2019-02-03T01:41:10.855Z,47.80
2019-02-03T01:43:43.530Z,48.57
2019-02-03T01:46:16.294Z,47.20
2019-02-03T01:48:48.970Z,48.27
2019-02-03T01:51:21.930Z,49.13
2019-02-03T01:53:54.981Z,48.17
2019-02-03T01:56:27.678Z,51.93
2019-02-03T01:59:00.366Z,48.53
2019-02-03T02:01:33.071Z,50.63
2019-02-03T02:04:05.749Z,52.00
2019-02-03T02:06:38.430Z,51.87
2019-02-03T02:09:11.442Z,49.73
2019-02-03T02:11:44.183Z,52.30
2019-02-03T02:14:16.871Z,50.80
2019-02-03T02:16:49.567Z,49.20
2019-02-03T02:19:22.618Z,49.60
2019-02-03T02:21:55.298Z,50.97
2019-02-03T02:24:27.987Z,49.90
2019-02-03T02:27:01.066Z,53.87
2019-02-03T02:29:33.838Z,53.10
2019-02-03T02:32:06.741Z,53.07
2019-02-03T02:34:39.491Z,53.93
2019-02-03T02:37:12.520Z,53.83
2019-02-03T02:39:45.252Z,52.53
2019-02-03T02:45:09.139Z,54.30
2019-02-03T02:47:41.820Z,53.60
2019-02-03T02:50:20.220Z,55.17
2019-02-03T02:52:52.866Z,51.87
2019-02-03T02:55:25.504Z,55.90
2019-02-03T02:57:58.148Z,56.43
2019-02-03T03:00:30.794Z,53.13
2019-02-03T03:03:03.556Z,55.03
2019-02-03T03:05:36.240Z,53.23
2019-02-03T03:08:18.413Z,56.13
2019-02-03T03:10:43.727Z,54.90
2019-02-03T03:13:16.416Z,56.47
2019-02-03T03:15:49.074Z,55.70
2019-02-03T03:18:22.122Z,58.93
2019-02-03T03:20:54.773Z,61.73
2019-02-03T03:23:27.417Z,61.57
2019-02-03T03:26:00.106Z,65.73
2019-02-03T03:28:32.759Z,64.37
2019-02-03T03:31:05.433Z,64.43
2019-02-03T03:33:38.129Z,65.63
2019-02-03T03:36:10.777Z,63.73
2019-02-03T03:38:43.415Z,63.40
2019-02-03T03:41:16.355Z,59.73
2019-02-03T03:43:48.983Z,60.37
2019-02-03T03:46:21.694Z,58.37
2019-02-03T03:48:54.372Z,62.80
2019-02-03T03:51:27.411Z,61.57
2019-02-03T03:54:00.060Z,61.63
2019-02-03T03:56:32.709Z,63.07
2019-02-03T03:59:05.353Z,58.93
2019-02-03T04:01:38.046Z,60.70
2019-02-03T04:04:10.710Z,61.97
2019-02-03T04:06:43.358Z,64.27
2019-02-03T04:09:16.000Z,58.63
2019-02-03T04:11:48.660Z,66.10
2019-02-03T04:14:21.579Z,61.97
2019-02-03T04:16:54.226Z,62.37
2019-02-03T04:19:26.875Z,62.40
2019-02-03T04:21:59.519Z,58.50
2019-02-03T04:24:32.236Z,59.90
2019-02-03T04:27:04.875Z,59.10
2019-02-03T04:29:37.518Z,59.40
2019-02-03T04:32:10.188Z,61.07
2019-02-03T04:34:42.884Z,56.80
2019-02-03T04:37:15.542Z,57.90
2019-02-03T04:39:48.183Z,56.03
2019-02-03T04:42:20.934Z,55.70
2019-02-03T04:44:53.582Z,55.43
2019-02-03T04:47:26.718Z,54.43
2019-02-03T04:49:59.417Z,55.60
2019-02-03T04:52:32.081Z,54.70
2019-02-03T04:55:05.765Z,54.90
2019-02-03T04:57:38.572Z,52.63
2019-02-03T05:00:14.222Z,54.37
2019-02-03T05:02:46.913Z,54.93
2019-02-03T05:05:19.643Z,57.13
2019-02-03T05:07:52.358Z,53.33
2019-02-03T05:10:24.976Z,53.90
2019-02-03T05:12:57.630Z,55.20
2019-02-03T05:15:30.293Z,56.20
2019-02-03T05:21:18.249Z,54.37
2019-02-03T05:23:50.934Z,52.50
2019-02-03T05:26:23.594Z,54.57
2019-02-03T05:28:56.367Z,56.60
2019-02-03T05:34:44.002Z,56.00
2019-02-03T05:37:16.700Z,54.70
2019-02-03T05:39:49.350Z,53.60
2019-02-03T05:42:22.099Z,57.70
2019-02-03T05:44:54.743Z,54.67
2019-02-03T05:47:27.421Z,56.17
2019-02-03T05:50:00.327Z,58.93
2019-02-03T05:52:33.238Z,57.93
2019-02-03T05:55:05.940Z,56.97
2019-02-03T05:57:38.633Z,57.97
2019-02-03T06:00:16.629Z,54.67
2019-02-03T06:02:49.514Z,58.13
2019-02-03T06:05:22.240Z,59.03
2019-02-03T06:07:54.887Z,60.07
2019-02-03T06:10:27.593Z,59.50
2019-02-03T06:13:00.250Z,58.77
2019-02-03T06:15:32.908Z,56.77
2019-02-03T06:18:05.580Z,55.27
2019-02-03T06:20:38.209Z,57.47
2019-02-03T06:23:10.888Z,58.73
2019-02-03T06:25:43.614Z,59.93
2019-02-03T06:28:16.255Z,58.70
2019-02-03T06:31:14.902Z,56.30
2019-02-03T06:33:49.131Z,58.63
2019-02-03T06:36:22.303Z,59.80
2019-02-03T06:38:54.965Z,58.80
2019-02-03T06:41:27.606Z,56.47
2019-02-03T06:44:00.267Z,56.23
2019-02-03T06:46:32.942Z,54.43
2019-02-03T06:49:05.607Z,56.00
2019-02-03T06:51:38.260Z,56.63
2019-02-03T06:54:10.990Z,57.03
2019-02-03T06:56:43.636Z,56.47
2019-02-03T06:59:16.278Z,54.37
2019-02-03T07:01:48.999Z,54.83
2019-02-03T07:04:22.126Z,54.77
2019-02-03T07:06:54.773Z,55.33
2019-02-03T07:09:27.438Z,57.33
2019-02-03T07:12:00.086Z,55.43
2019-02-03T07:14:32.735Z,55.80
2019-02-03T07:17:05.393Z,54.57
2019-02-03T07:19:38.081Z,54.50
2019-02-03T07:22:10.737Z,54.87
2019-02-03T07:24:43.438Z,54.13
2019-02-03T07:27:16.371Z,52.50
2019-02-03T07:29:49.025Z,55.13
2019-02-03T07:32:21.674Z,54.47
2019-02-03T07:34:54.340Z,55.83
2019-02-03T07:37:27.015Z,52.67
2019-02-03T07:40:11.676Z,54.43
2019-02-03T07:42:34.034Z,53.73
2019-02-03T07:45:06.715Z,54.60
2019-02-03T07:47:39.358Z,54.27
2019-02-03T07:50:12.049Z,53.87
2019-02-03T07:52:44.703Z,53.83
2019-02-03T07:55:17.373Z,50.73
2019-02-03T07:57:50.010Z,51.47
2019-02-03T08:00:23.035Z,51.87
2019-02-03T08:02:55.675Z,49.13
2019-02-03T08:05:28.333Z,49.10
2019-02-03T08:08:02.107Z,49.47
2019-02-03T08:10:34.770Z,48.87
2019-02-03T08:13:07.415Z,48.17
2019-02-03T08:15:40.062Z,46.53
2019-02-03T08:18:12.725Z,48.07
2019-02-03T08:20:45.929Z,47.03
2019-02-03T08:23:18.902Z,47.77
2019-02-03T08:25:53.523Z,46.63
2019-02-03T08:28:26.409Z,45.30
2019-02-03T08:30:59.234Z,47.57
2019-02-03T08:33:32.318Z,47.70
2019-02-03T08:36:05.658Z,47.10
2019-02-03T08:38:38.523Z,44.97
2019-02-03T08:41:11.373Z,45.13
2019-02-03T08:43:44.326Z,45.20
2019-02-03T08:46:17.307Z,45.03
2019-02-03T08:48:50.332Z,45.10
2019-02-03T08:51:24.668Z,45.00
2019-02-03T08:53:57.874Z,46.77
2019-02-03T08:56:32.354Z,47.60
2019-02-03T08:59:05.549Z,45.73
2019-02-03T09:01:38.611Z,43.30
2019-02-03T09:04:11.619Z,44.23
2019-02-03T09:06:45.009Z,42.97
2019-02-03T09:09:17.710Z,44.80
2019-02-03T09:11:50.860Z,42.87
2019-02-03T09:14:24.000Z,41.73
2019-02-03T09:16:57.314Z,41.30
2019-02-03T09:19:30.383Z,36.50
2019-02-03T09:22:03.589Z,36.07
2019-02-03T09:24:36.352Z,35.87
2019-02-03T09:27:08.987Z,35.97
2019-02-03T09:29:41.670Z,36.20
2019-02-03T09:32:14.410Z,35.03
2019-02-03T09:34:47.055Z,34.33
2019-02-03T09:37:19.694Z,37.27
2019-02-03T09:39:52.750Z,35.77
2019-02-03T09:42:25.452Z,35.53
2019-02-03T09:44:58.118Z,33.30
2019-02-03T09:47:30.781Z,34.10
2019-02-03T09:50:04.442Z,31.13
2019-02-03T09:52:37.090Z,30.80
2019-02-03T09:55:09.738Z,29.23
2019-02-03T09:57:42.389Z,31.20
2019-02-03T10:00:20.942Z,28.70
2019-02-03T10:02:54.581Z,28.30
2019-02-03T10:05:27.222Z,29.00
2019-02-03T10:07:59.882Z,28.83
2019-02-03T10:10:34.456Z,27.33
2019-02-03T10:13:07.381Z,27.53
2019-02-03T10:15:40.038Z,26.07
2019-02-03T10:18:12.698Z,26.30
2019-02-03T10:20:45.335Z,28.97
2019-02-03T10:23:18.369Z,23.80
2019-02-03T10:25:51.010Z,25.33
2019-02-03T10:28:23.646Z,25.03
2019-02-03T10:30:56.310Z,23.40
2019-02-03T10:33:28.950Z,22.80
2019-02-03T10:36:01.666Z,21.43
2019-02-03T10:38:34.315Z,22.13
2019-02-03T10:41:06.975Z,22.33
2019-02-03T10:43:39.635Z,20.87
2019-02-03T10:46:12.614Z,21.97
2019-02-03T10:48:45.262Z,21.63
2019-02-03T10:51:17.909Z,20.23
2019-02-03T10:53:50.556Z,21.50
2019-02-03T10:56:23.199Z,20.00
2019-02-03T10:58:55.855Z,19.07
2019-02-03T11:01:28.533Z,19.90
2019-02-03T11:04:01.194Z,19.57
2019-02-03T11:06:33.850Z,18.30
2019-02-03T11:09:08.817Z,17.23
2019-02-03T11:11:41.475Z,17.60
2019-02-03T11:14:14.112Z,16.43
2019-02-03T11:23:15.945Z,15.63
2019-02-03T11:25:48.654Z,14.90
2019-02-03T11:28:21.319Z,10.67
2019-02-03T11:30:53.953Z,13.50
2019-02-03T11:33:26.640Z,14.80
2019-02-03T11:35:59.301Z,13.60
2019-02-03T11:38:31.937Z,11.60
2019-02-03T11:41:05.466Z,12.00
2019-02-03T11:43:38.110Z,11.97
2019-02-03T11:46:10.770Z,11.23
2019-02-03T11:48:43.406Z,10.80
2019-02-03T11:51:16.047Z,9.30
2019-02-03T11:53:48.790Z,8.70
2019-02-03T11:56:21.429Z,9.13
2019-02-03T11:58:54.086Z,8.30
2019-02-03T12:01:26.883Z,8.00
2019-02-03T12:03:59.540Z,7.77
2019-02-03T12:06:32.453Z,9.43
2019-02-03T12:09:07.380Z,9.00
2019-02-03T12:11:40.038Z,9.40
2019-02-03T12:14:12.683Z,8.00
2019-02-03T12:16:45.707Z,8.93
2019-02-03T12:19:18.337Z,8.83
2019-02-03T12:21:50.978Z,10.33
2019-02-03T12:24:23.605Z,9.43
2019-02-03T12:26:56.249Z,9.20
2019-02-03T12:29:28.927Z,8.67
2019-02-03T12:32:01.569Z,8.53
2019-02-03T12:34:34.219Z,7.43
2019-02-03T12:37:07.096Z,8.10
2019-02-03T12:39:39.788Z,7.43
2019-02-03T12:42:13.503Z,7.10
2019-02-03T12:44:46.426Z,5.97
2019-02-03T12:47:19.355Z,6.60
2019-02-03T12:49:52.167Z,6.27
2019-02-03T12:52:24.818Z,6.87
2019-02-03T12:54:57.849Z,6.50
2019-02-03T12:57:30.682Z,5.80
2019-02-03T13:00:05.129Z,5.33
2019-02-03T13:02:37.888Z,4.83
2019-02-03T13:05:11.160Z,4.40
2019-02-03T13:07:44.104Z,10.90
2019-02-03T13:10:21.890Z,6.27
2019-02-03T13:12:54.542Z,6.37
2019-02-03T13:15:32.574Z,5.50
2019-02-03T13:18:06.085Z,5.50
2019-02-03T13:20:42.234Z,5.17
2019-02-03T13:23:13.458Z,4.67
2019-02-03T13:25:46.091Z,4.53
2019-02-03T13:28:18.741Z,9.80
2019-02-03T13:30:51.355Z,5.10
2019-02-03T13:33:23.986Z,5.03
2019-02-03T13:35:56.610Z,4.30
2019-02-03T13:38:29.261Z,5.17
2019-02-03T13:41:01.911Z,5.03
2019-02-03T13:43:35.388Z,4.63
2019-02-03T13:46:08.056Z,4.47
2019-02-03T13:48:40.702Z,4.90
2019-02-03T13:51:13.330Z,5.67
2019-02-03T13:53:45.970Z,6.67
2019-02-03T13:56:18.599Z,5.63
2019-02-03T13:58:51.243Z,5.80
2019-02-03T14:01:23.938Z,5.20
2019-02-03T14:03:56.904Z,5.90
2019-02-03T14:06:29.565Z,5.63
2019-02-03T14:09:02.216Z,5.70
2019-02-03T14:11:34.843Z,5.93
2019-02-03T14:14:07.661Z,5.60
2019-02-03T14:16:40.289Z,5.63
2019-02-03T14:19:12.931Z,5.43
2019-02-03T14:21:45.570Z,5.97
2019-02-03T14:24:18.225Z,5.20
2019-02-03T14:26:50.898Z,5.30
2019-02-03T14:29:23.546Z,4.80
2019-02-03T14:31:56.245Z,4.43
2019-02-03T14:34:28.867Z,4.50
2019-02-03T14:37:01.786Z,5.40
2019-02-03T14:39:34.449Z,5.03
2019-02-03T14:42:09.901Z,5.00
2019-02-03T14:44:41.466Z,5.07
2019-02-03T14:47:14.480Z,5.17
2019-02-03T14:49:47.174Z,5.20
2019-02-03T14:52:19.813Z,4.93
2019-02-03T14:54:52.538Z,4.50
2019-02-03T14:57:25.185Z,4.77
2019-02-03T14:59:57.812Z,4.97
2019-02-03T15:02:30.451Z,4.13
2019-02-03T15:05:03.545Z,4.53
2019-02-03T15:07:37.641Z,3.83
2019-02-03T15:10:10.600Z,4.10
2019-02-03T15:12:43.298Z,4.20
2019-02-03T15:15:18.147Z,4.60
2019-02-03T15:17:50.913Z,4.40
2019-02-03T15:20:23.551Z,4.20
2019-02-03T15:22:59.273Z,4.90
2019-02-03T15:25:31.910Z,4.13
2019-02-03T15:28:10.406Z,4.50
2019-02-03T15:30:42.582Z,4.80
2019-02-03T15:33:15.229Z,4.70
2019-02-03T15:35:47.914Z,4.50
2019-02-03T15:38:20.553Z,4.43
2019-02-03T15:40:53.173Z,4.67
2019-02-03T15:43:25.996Z,4.87
2019-02-03T15:45:58.810Z,4.60
2019-02-03T15:48:31.446Z,5.03
2019-02-03T15:51:04.466Z,4.60
2019-02-03T15:53:37.115Z,5.13
2019-02-03T15:56:09.794Z,4.97
2019-02-03T15:58:42.513Z,5.10
2019-02-03T16:01:15.150Z,5.13
2019-02-03T16:03:47.819Z,4.83
2019-02-03T16:06:20.426Z,4.90
2019-02-03T16:08:53.085Z,4.90
2019-02-03T16:11:25.790Z,5.00
2019-02-03T16:20:32.599Z,4.57
2019-02-03T16:23:03.005Z,4.70
2019-02-03T16:25:35.677Z,4.60
2019-02-03T16:28:08.318Z,4.60
2019-02-03T16:30:41.335Z,4.53
2019-02-03T16:33:14.037Z,4.63
2019-02-03T16:35:46.674Z,4.90
2019-02-03T16:38:23.122Z,4.40
2019-02-03T16:40:53.685Z,4.53
2019-02-03T16:43:26.336Z,4.27
2019-02-03T16:45:58.999Z,4.80
2019-02-03T16:48:31.719Z,4.57
2019-02-03T16:51:05.295Z,4.70
2019-02-03T16:53:38.375Z,5.17
2019-02-03T16:56:11.027Z,5.07
2019-02-03T16:58:43.715Z,4.87
2019-02-03T17:01:16.353Z,5.10
2019-02-03T17:03:48.999Z,5.27
2019-02-03T17:06:21.646Z,5.13
2019-02-03T17:08:54.511Z,5.60
2019-02-03T17:11:27.163Z,5.97
2019-02-03T17:14:00.772Z,5.87
2019-02-03T17:16:33.600Z,6.60
2019-02-03T17:19:06.263Z,5.77
2019-02-03T17:21:38.972Z,6.03
2019-02-03T17:24:11.643Z,6.17
2019-02-03T17:26:44.271Z,5.87
2019-02-03T17:29:16.922Z,6.10
2019-02-03T17:31:49.556Z,5.80
2019-02-03T17:34:22.220Z,6.13
2019-02-03T17:36:54.829Z,6.17
2019-02-03T17:39:27.493Z,6.27
2019-02-03T17:42:00.502Z,5.90
2019-02-03T17:44:33.217Z,6.57
2019-02-03T17:47:05.907Z,6.30
2019-02-03T17:49:38.550Z,6.60
2019-02-03T17:52:11.194Z,6.37
2019-02-03T17:54:43.851Z,5.73
2019-02-03T17:57:19.178Z,6.20
2019-02-03T17:59:50.892Z,6.40
2019-02-03T18:02:23.516Z,6.63
2019-02-03T18:04:56.238Z,6.27
2019-02-03T18:07:28.866Z,6.47
2019-02-03T18:10:01.521Z,5.97
2019-02-03T18:12:34.176Z,6.23
2019-02-03T18:15:07.727Z,6.87
2019-02-03T18:17:40.369Z,6.77
2019-02-03T18:20:15.443Z,10.20
2019-02-03T18:22:48.077Z,8.23
2019-02-03T18:25:20.748Z,8.50
2019-02-03T18:27:53.379Z,7.17
2019-02-03T18:30:26.076Z,6.10
2019-02-03T18:32:58.756Z,6.10
2019-02-03T18:35:31.418Z,6.00
2019-02-03T18:38:06.053Z,6.47
2019-02-03T18:40:38.767Z,6.47
2019-02-03T18:43:11.448Z,6.70
2019-02-03T18:45:44.080Z,6.20
2019-02-03T18:48:16.721Z,6.33
2019-02-03T18:50:49.391Z,6.23
2019-02-03T18:53:22.058Z,7.27
2019-02-03T18:55:54.767Z,6.93
2019-02-03T18:58:27.443Z,6.47
2019-02-03T19:01:00.130Z,6.77
2019-02-03T19:03:32.816Z,7.23
2019-02-03T19:06:05.562Z,6.93
2019-02-03T19:08:38.195Z,7.30
2019-02-03T19:11:11.359Z,7.43
2019-02-03T19:13:44.046Z,8.67
2019-02-03T19:16:16.690Z,8.87
2019-02-03T19:18:49.349Z,8.30
2019-02-03T19:21:22.698Z,9.80
2019-02-03T19:23:55.503Z,10.00
2019-02-03T19:26:28.155Z,9.50
2019-02-03T19:29:00.862Z,9.20
2019-02-03T19:31:33.531Z,9.73
2019-02-03T19:34:06.186Z,9.00
2019-02-03T19:36:38.807Z,9.40
2019-02-03T19:39:11.560Z,8.77
2019-02-03T19:41:44.279Z,9.07
2019-02-03T19:44:16.917Z,9.83
2019-02-03T19:46:49.618Z,10.77
2019-02-03T19:49:22.272Z,11.50
2019-02-03T19:51:54.912Z,10.87
2019-02-03T19:54:27.547Z,11.60
2019-02-03T19:57:00.213Z,10.77
2019-02-03T19:59:32.900Z,12.03
2019-02-03T20:02:05.557Z,11.80
2019-02-03T20:04:38.190Z,12.77
2019-02-03T20:07:11.315Z,12.60
2019-02-03T20:09:43.959Z,12.30
2019-02-03T20:12:16.636Z,11.80
2019-02-03T20:14:49.264Z,12.90
2019-02-03T20:17:21.920Z,11.97
2019-02-03T20:19:54.554Z,12.53
2019-02-03T20:22:27.206Z,15.27
2019-02-03T20:24:59.872Z,16.23
2019-02-03T20:27:32.553Z,14.73
2019-02-03T20:30:08.907Z,14.90
2019-02-03T20:32:41.561Z,13.73
2019-02-03T20:35:14.880Z,14.57
2019-02-03T20:37:47.559Z,13.83
2019-02-03T20:40:22.799Z,14.37
2019-02-03T20:42:55.519Z,16.10
2019-02-03T20:45:28.258Z,18.67
2019-02-03T20:48:00.910Z,16.10
2019-02-03T20:50:33.536Z,14.97
2019-02-03T20:53:06.192Z,13.93
2019-02-03T20:55:38.819Z,12.67
2019-02-03T20:58:11.490Z,12.50
2019-02-03T21:00:44.122Z,12.20
2019-02-03T21:03:17.246Z,12.43
2019-02-03T21:05:49.903Z,13.20
2019-02-03T21:08:22.548Z,12.40
2019-02-03T21:10:55.190Z,11.43
2019-02-03T21:13:27.831Z,11.90
2019-02-03T21:16:00.474Z,11.60
2019-02-03T21:18:33.121Z,15.10
2019-02-03T21:21:05.754Z,13.73
2019-02-03T21:23:38.695Z,12.53
2019-02-03T21:26:16.307Z,14.77
2019-02-03T21:28:46.083Z,12.00
2019-02-03T21:31:18.733Z,11.33
2019-02-03T21:33:51.439Z,11.70
2019-02-03T21:36:24.078Z,12.13
2019-02-03T21:39:14.167Z,12.53
2019-02-03T21:41:44.227Z,12.13
2019-02-03T21:44:16.926Z,11.47
2019-02-03T21:46:49.842Z,11.53
2019-02-03T21:49:22.569Z,11.70
2019-02-03T21:51:55.215Z,11.17
2019-02-03T21:54:27.850Z,12.50
2019-02-03T21:57:00.510Z,11.60
2019-02-03T21:59:33.147Z,10.97
2019-02-03T22:02:05.800Z,11.10
2019-02-03T22:04:38.442Z,10.73
2019-02-03T22:07:11.095Z,11.03
2019-02-03T22:09:43.751Z,10.90
2019-02-03T22:12:16.427Z,11.03
2019-02-03T22:14:49.099Z,11.67
2019-02-03T22:17:21.769Z,11.63
2019-02-03T22:19:54.773Z,10.53
2019-02-03T22:22:27.507Z,12.10
2019-02-03T22:25:00.197Z,12.17
2019-02-03T22:27:32.867Z,11.30
2019-02-03T22:30:10.259Z,11.60
2019-02-03T22:32:42.980Z,12.17
2019-02-03T22:35:15.619Z,12.77
2019-02-03T22:37:48.293Z,13.83
2019-02-03T22:40:21.002Z,14.00
2019-02-03T22:42:53.723Z,14.90
2019-02-03T22:45:26.384Z,16.23
2019-02-03T22:47:59.067Z,16.13
2019-02-03T22:50:31.851Z,15.43
2019-02-03T22:53:04.867Z,15.57
2019-02-03T22:55:37.509Z,14.07
2019-02-03T22:58:10.160Z,14.70
2019-02-03T23:00:55.875Z,13.30
2019-02-03T23:03:49.301Z,13.83
2019-02-03T23:06:23.654Z,13.40
2019-02-03T23:08:57.780Z,14.50
2019-02-03T23:11:30.404Z,14.83
2019-02-03T23:14:04.634Z,14.40
2019-02-03T23:16:37.552Z,14.83
2019-02-03T23:19:10.221Z,14.50
2019-02-03T23:21:44.983Z,14.57
2019-02-03T23:24:17.216Z,14.20
2019-02-03T23:26:49.891Z,14.53
2019-02-03T23:29:22.530Z,14.30
2019-02-03T23:31:55.468Z,15.23
2019-02-03T23:34:28.167Z,15.27
2019-02-03T23:37:00.848Z,16.07
2019-02-03T23:39:33.494Z,15.97
2019-02-03T23:42:06.115Z,15.77
2019-02-03T23:44:38.773Z,15.63
2019-02-03T23:47:11.457Z,15.43
2019-02-03T23:49:44.091Z,15.00
2019-02-03T23:52:16.731Z,15.43
2019-02-03T23:54:49.907Z,15.20
2019-02-03T23:57:22.678Z,15.50
2019-02-03T23:59:55.327Z,16.00
